Terminal Aerodrome Forecast
Issued by NWS Sioux Falls, SD

Home | Current Version | Previous Version | Text Only | Print | Product List | Glossary On
Versions: 1 2 3 4 5 6 7 8 9 10 11 12 13 14 15 16 17 18 19
000
FTUS43 KFSD 061503 AAE
TAFFSD
TAF AMD
KFSD 061503Z 0615/0712 35015G22KT P6SM BKN014
      TEMPO 0615/0617 SCT015 BKN030
     FM061700 36017G24KT 5SM FU SCT030 SCT120
     FM070100 36007KT P6SM SKC=

USA.gov is the U.S. government's official web portal to all federal, state and local government web resources and services.